Time;durP1;ratioP1;P1;durP2;ratioP2;P2;SDS_P1;SDS_P2;PMS_P1;PMS_P2;Temp;Humidity;BMP_temperature;BMP_pressure;BME280_temperature;BME280_humidity;BME280_pressure;Samples;Min_cycle;Max_cycle;Signal;HPM_P1;HPM_P2
2021/08/01 00:02:26;;;;;;;4.13;3.83;;;28.60;78.00;;;;;;5010308;28;20509;-29
2021/08/01 00:04:57;;;;;;;4.70;4.30;;;28.60;77.30;;;;;;5022569;28;20524;-27
2021/08/01 00:07:28;;;;;;;4.57;4.17;;;28.60;77.10;;;;;;5021616;28;20494;-28
2021/08/01 00:10:00;;;;;;;4.47;4.07;;;28.60;77.50;;;;;;5019509;28;20493;-28
2021/08/01 00:12:33;;;;;;;5.07;4.50;;;28.60;77.10;;;;;;5019960;28;20451;-28
2021/08/01 00:15:05;;;;;;;5.00;4.60;;;28.70;77.40;;;;;;5003901;28;20487;-28
2021/08/01 00:17:36;;;;;;;4.63;4.27;;;28.70;76.50;;;;;;5011922;28;20493;-27
2021/08/01 00:20:08;;;;;;;4.50;4.10;;;28.60;77.50;;;;;;5009759;28;20450;-30
2021/08/01 00:22:39;;;;;;;4.50;4.20;;;28.50;77.50;;;;;;5018646;28;20993;-29
2021/08/01 00:25:11;;;;;;;5.63;4.70;;;28.60;78.90;;;;;;5023179;28;20453;-29
2021/08/01 00:27:44;;;;;;;5.80;5.00;;;28.50;80.60;;;;;;5022998;28;20467;-28
2021/08/01 00:30:15;;;;;;;4.87;4.47;;;28.70;79.40;;;;;;5008880;28;20564;-29
2021/08/01 00:32:46;;;;;;;4.60;4.20;;;28.70;78.80;;;;;;5013923;28;20456;-29
2021/08/01 00:35:17;;;;;;;5.57;5.07;;;28.70;78.40;;;;;;5017284;28;20473;-29
2021/08/01 00:37:48;;;;;;;4.53;4.23;;;28.70;78.90;;;;;;5014441;28;20452;-29
2021/08/01 00:40:22;;;;;;;5.20;4.70;;;28.60;80.60;;;;;;5013968;28;20452;-28
2021/08/01 00:42:54;;;;;;;4.90;4.50;;;28.50;82.00;;;;;;5020034;28;20455;-29
2021/08/01 00:45:27;;;;;;;5.20;4.70;;;28.50;80.80;;;;;;5007748;28;20963;-28
2021/08/01 00:47:58;;;;;;;5.23;4.83;;;28.40;81.30;;;;;;5004276;28;20876;-29
2021/08/01 00:50:29;;;;;;;4.90;4.50;;;28.40;80.90;;;;;;5021724;28;20479;-29
2021/08/01 00:53:01;;;;;;;8.07;4.73;;;28.40;81.90;;;;;;5022717;28;20801;-28
2021/08/01 00:55:32;;;;;;;5.23;4.80;;;28.40;81.00;;;;;;5016356;28;20491;-28
2021/08/01 00:58:05;;;;;;;4.73;4.33;;;28.40;82.20;;;;;;5016075;28;21008;-28
2021/08/01 01:00:58;;;;;;;5.07;4.57;;;28.30;83.20;;;;;;5008296;28;20466;-29
2021/08/01 01:03:36;;;;;;;5.10;4.50;;;28.20;82.60;;;;;;5002537;28;20463;-28
2021/08/01 01:06:15;;;;;;;6.60;5.00;;;28.30;83.50;;;;;;5003573;28;20532;-28
2021/08/01 01:08:53;;;;;;;5.20;4.80;;;28.10;83.50;;;;;;5019629;28;20450;-29
2021/08/01 01:11:29;;;;;;;5.00;4.60;;;28.10;83.60;;;;;;5003573;28;20447;-28
2021/08/01 01:14:03;;;;;;;5.80;5.30;;;28.00;83.50;;;;;;5012294;28;20544;-27
2021/08/01 01:16:41;;;;;;;5.40;5.00;;;27.90;83.60;;;;;;5017086;28;20466;-28
2021/08/01 01:19:21;;;;;;;5.87;5.37;;;27.90;82.80;;;;;;5025505;28;20457;-29
2021/08/01 01:22:01;;;;;;;5.63;5.23;;;27.80;84.60;;;;;;5025672;28;20476;-29
2021/08/01 01:24:34;;;;;;;5.23;4.83;;;27.80;83.70;;;;;;5012310;28;20456;-29
2021/08/01 01:27:12;;;;;;;5.03;4.53;;;27.70;84.00;;;;;;5014765;28;20482;-29
2021/08/01 01:29:51;;;;;;;5.27;4.77;;;27.70;84.10;;;;;;5019844;28;20477;-29
2021/08/01 01:32:28;;;;;;;4.50;4.10;;;27.70;85.50;;;;;;5006058;28;20982;-28
2021/08/01 01:35:04;;;;;;;4.83;4.17;;;27.70;85.00;;;;;;5020723;28;20491;-28
2021/08/01 01:37:37;;;;;;;4.90;4.60;;;27.60;86.50;;;;;;5025631;28;20870;-28
2021/08/01 01:40:10;;;;;;;4.43;4.03;;;27.50;86.10;;;;;;5014585;28;20468;-28
2021/08/01 01:42:42;;;;;;;5.07;4.57;;;27.50;86.80;;;;;;5007954;28;20463;-28
2021/08/01 01:45:18;;;;;;;4.83;4.43;;;27.50;86.10;;;;;;5014866;28;20481;-28
2021/08/01 01:47:49;;;;;;;4.73;4.33;;;27.50;86.90;;;;;;5023014;28;20507;-29
2021/08/01 01:50:21;;;;;;;4.60;4.20;;;27.40;87.20;;;;;;5022312;28;20481;-29
2021/08/01 01:52:55;;;;;;;4.30;4.00;;;27.40;88.00;;;;;;5009565;28;20478;-29
2021/08/01 01:55:35;;;;;;;4.40;4.00;;;27.30;86.10;;;;;;5006488;28;20857;-29
2021/08/01 01:58:10;;;;;;;4.20;3.80;;;27.20;87.50;;;;;;5006493;28;20477;-29
2021/08/01 02:00:41;;;;;;;4.63;4.27;;;27.00;88.40;;;;;;5019363;28;20463;-29
2021/08/01 02:03:12;;;;;;;4.20;3.83;;;27.00;88.00;;;;;;5023011;28;20456;-28
2021/08/01 02:05:44;;;;;;;4.90;4.57;;;26.90;89.20;;;;;;5016067;28;20482;-29
2021/08/01 02:08:17;;;;;;;4.73;4.33;;;26.90;88.90;;;;;;5006994;28;20460;-29
2021/08/01 02:10:54;;;;;;;5.23;4.73;;;26.90;89.00;;;;;;5021850;28;20464;-29
2021/08/01 02:13:30;;;;;;;6.87;4.60;;;26.90;89.10;;;;;;5024050;28;20479;-29
2021/08/01 02:16:06;;;;;;;4.43;4.03;;;26.90;89.20;;;;;;5006235;28;20793;-29
2021/08/01 02:18:49;;;;;;;4.20;3.90;;;26.80;89.60;;;;;;5017079;28;20483;-29
2021/08/01 02:21:33;;;;;;;4.23;3.93;;;26.80;89.50;;;;;;5018310;28;20478;-29
2021/08/01 02:24:07;;;;;;;4.43;4.13;;;26.80;89.00;;;;;;5005541;28;20452;-29
2021/08/01 02:26:41;;;;;;;5.10;4.27;;;26.80;90.00;;;;;;5007110;28;20476;-28
2021/08/01 02:29:15;;;;;;;4.93;4.53;;;26.80;90.20;;;;;;5011796;28;20453;-29
2021/08/01 02:31:46;;;;;;;4.37;3.97;;;26.70;89.80;;;;;;5019756;28;20460;-29
2021/08/01 02:34:17;;;;;;;4.93;4.53;;;26.80;90.10;;;;;;5015475;28;20863;-29
2021/08/01 02:36:49;;;;;;;4.47;4.07;;;26.70;90.20;;;;;;5017088;28;20447;-29
2021/08/01 02:39:22;;;;;;;4.87;3.73;;;26.50;90.50;;;;;;5020119;28;20452;-28
2021/08/01 02:41:54;;;;;;;5.23;4.57;;;26.50;90.50;;;;;;5025093;28;20810;-28
2021/08/01 02:44:28;;;;;;;5.77;4.27;;;26.40;90.90;;;;;;5024059;28;20506;-27
2021/08/01 02:47:00;;;;;;;6.40;4.53;;;26.30;91.10;;;;;;5019323;28;20491;-28
2021/08/01 02:49:38;;;;;;;4.30;4.00;;;26.30;91.30;;;;;;5016759;28;20456;-28
2021/08/01 02:52:12;;;;;;;7.50;5.00;;;26.30;91.30;;;;;;5024646;28;20446;-28
2021/08/01 02:54:47;;;;;;;4.23;3.93;;;26.30;91.00;;;;;;5016647;28;20475;-28
2021/08/01 02:57:19;;;;;;;3.97;3.67;;;26.20;91.10;;;;;;5011032;28;20478;-28
2021/08/01 02:59:50;;;;;;;3.90;3.60;;;26.20;91.10;;;;;;5007819;28;20485;-28
2021/08/01 03:02:22;;;;;;;3.97;3.67;;;26.20;91.00;;;;;;5013487;28;20514;-28
2021/08/01 03:04:54;;;;;;;4.20;3.90;;;26.00;91.40;;;;;;5021869;28;20459;-28
2021/08/01 03:07:26;;;;;;;4.93;4.10;;;25.90;92.10;;;;;;5019252;28;20443;-28
2021/08/01 03:09:58;;;;;;;4.30;3.87;;;25.80;92.40;;;;;;5022789;28;20461;-28
2021/08/01 03:12:29;;;;;;;4.63;4.30;;;25.80;92.80;;;;;;5017347;28;20517;-28
2021/08/01 03:15:00;;;;;;;5.17;4.00;;;25.80;92.00;;;;;;5011462;28;20454;-27
2021/08/01 03:17:31;;;;;;;4.00;3.70;;;25.80;92.00;;;;;;5020152;28;20459;-28
2021/08/01 03:20:02;;;;;;;4.37;4.00;;;25.70;91.80;;;;;;5005068;28;20455;-28
2021/08/01 03:22:33;;;;;;;11.40;3.70;;;25.60;92.10;;;;;;5004794;28;20962;-28
2021/08/01 03:25:07;;;;;;;4.53;4.13;;;25.50;92.40;;;;;;5014221;28;20498;-28
2021/08/01 03:27:38;;;;;;;4.10;3.57;;;25.50;92.40;;;;;;5019359;28;20452;-28
2021/08/01 03:30:10;;;;;;;4.47;4.10;;;25.50;92.10;;;;;;5016802;28;20535;-28
2021/08/01 03:32:41;;;;;;;4.80;4.40;;;25.40;92.50;;;;;;5022416;28;20548;-27
2021/08/01 03:35:12;;;;;;;4.60;4.20;;;25.20;92.50;;;;;;5012452;28;20475;-28
2021/08/01 03:37:43;;;;;;;4.33;4.03;;;25.10;93.20;;;;;;5006887;28;20492;-28
2021/08/01 03:40:17;;;;;;;4.17;3.87;;;25.00;93.00;;;;;;5010722;28;20470;-27
2021/08/01 03:42:48;;;;;;;4.40;3.90;;;24.90;93.10;;;;;;5021569;28;21096;-28
2021/08/01 03:45:20;;;;;;;3.70;3.40;;;24.80;93.80;;;;;;5024085;28;20589;-27
2021/08/01 03:47:51;;;;;;;4.70;4.27;;;24.70;93.80;;;;;;5022383;28;20454;-28
2021/08/01 03:50:22;;;;;;;3.97;3.73;;;24.70;93.10;;;;;;5007330;28;20455;-28
2021/08/01 03:52:53;;;;;;;4.23;3.93;;;24.60;93.00;;;;;;5023572;28;20755;-29
2021/08/01 03:55:25;;;;;;;4.03;3.73;;;24.70;92.90;;;;;;5023878;28;20494;-28
2021/08/01 03:57:56;;;;;;;4.40;4.00;;;24.70;92.80;;;;;;5010460;28;20568;-28
2021/08/01 04:00:27;;;;;;;3.87;3.57;;;24.60;92.70;;;;;;5019327;28;20463;-28
2021/08/01 04:02:58;;;;;;;4.60;4.20;;;24.60;92.80;;;;;;5021139;28;20509;-28
2021/08/01 04:05:29;;;;;;;4.40;3.80;;;24.50;92.80;;;;;;5023293;28;20458;-28
2021/08/01 04:08:00;;;;;;;4.30;3.73;;;24.40;93.20;;;;;;5015947;28;20463;-27
2021/08/01 04:10:33;;;;;;;3.77;3.47;;;24.30;93.70;;;;;;5020729;28;20473;-28
2021/08/01 04:13:04;;;;;;;3.77;3.47;;;24.20;93.80;;;;;;5016364;28;20482;-28
2021/08/01 04:15:35;;;;;;;4.20;3.90;;;24.20;94.10;;;;;;5015326;28;20509;-28
2021/08/01 04:18:06;;;;;;;4.67;4.27;;;24.10;94.80;;;;;;5021254;28;20454;-28
2021/08/01 04:20:38;;;;;;;4.93;4.50;;;24.20;94.90;;;;;;5021679;28;20588;-28
2021/08/01 04:23:09;;;;;;;5.10;3.97;;;24.10;95.20;;;;;;5022382;28;20482;-28
2021/08/01 04:25:42;;;;;;;4.13;3.87;;;24.10;95.30;;;;;;5018458;28;20489;-28
2021/08/01 04:28:13;;;;;;;4.47;4.07;;;24.00;95.80;;;;;;5016594;28;20480;-28
2021/08/01 04:30:44;;;;;;;5.73;4.00;;;23.90;96.70;;;;;;5023309;28;20521;-28
2021/08/01 04:33:15;;;;;;;3.50;3.30;;;23.80;96.90;;;;;;5021378;28;20490;-28
2021/08/01 04:35:46;;;;;;;4.23;3.93;;;23.80;97.00;;;;;;5023168;28;20478;-28
2021/08/01 04:38:17;;;;;;;4.20;3.90;;;23.80;97.20;;;;;;5022289;28;21778;-28
2021/08/01 04:40:50;;;;;;;4.00;3.60;;;23.80;97.30;;;;;;5024331;28;20465;-28
2021/08/01 04:43:21;;;;;;;3.77;3.47;;;23.80;97.20;;;;;;5021663;28;20453;-27
2021/08/01 04:45:53;;;;;;;3.70;3.40;;;23.80;97.10;;;;;;5005221;28;20510;-27
2021/08/01 04:48:24;;;;;;;4.07;3.80;;;23.70;97.30;;;;;;5009170;28;20442;-28
2021/08/01 04:50:55;;;;;;;3.93;3.63;;;23.70;97.50;;;;;;5026056;28;20442;-28
2021/08/01 04:53:26;;;;;;;3.77;3.47;;;23.70;97.60;;;;;;5023980;28;20445;-28
2021/08/01 04:55:58;;;;;;;4.70;3.83;;;23.70;97.60;;;;;;5026380;28;20486;-28
2021/08/01 04:58:29;;;;;;;3.87;3.57;;;23.60;98.00;;;;;;5021821;28;20851;-28
2021/08/01 05:01:00;;;;;;;4.27;3.90;;;23.70;97.90;;;;;;5012939;28;20504;-28
2021/08/01 05:03:31;;;;;;;4.30;3.90;;;23.70;97.70;;;;;;5024299;28;20481;-28
2021/08/01 05:06:06;;;;;;;3.57;3.27;;;23.60;98.20;;;;;;5024774;28;20458;-29
2021/08/01 05:08:37;;;;;;;3.63;3.33;;;23.50;98.80;;;;;;5021613;28;20447;-29
2021/08/01 05:11:11;;;;;;;3.27;3.00;;;23.50;98.70;;;;;;5018917;28;20588;-29
2021/08/01 05:13:41;;;;;;;6.87;3.40;;;23.50;98.50;;;;;;5025882;28;20477;-29
2021/08/01 05:16:18;;;;;;;4.17;3.87;;;23.50;98.50;;;;;;5025926;28;20948;-28
2021/08/01 05:18:50;;;;;;;4.10;3.80;;;23.50;98.60;;;;;;5020496;28;20580;-29
2021/08/01 05:21:24;;;;;;;4.50;3.23;;;23.50;98.70;;;;;;5006405;28;20452;-29
2021/08/01 05:23:55;;;;;;;3.77;3.47;;;23.40;99.10;;;;;;5022409;28;20452;-29
2021/08/01 05:26:28;;;;;;;3.73;3.33;;;23.30;99.60;;;;;;5025190;28;20477;-29
2021/08/01 05:28:59;;;;;;;4.10;3.80;;;23.30;99.80;;;;;;5020694;28;20483;-29
2021/08/01 05:31:30;;;;;;;5.60;4.17;;;23.30;99.90;;;;;;5023876;28;20517;-29
2021/08/01 05:34:01;;;;;;;3.73;3.33;;;23.40;99.90;;;;;;5020485;28;20469;-29
2021/08/01 05:36:32;;;;;;;3.73;3.43;;;23.30;99.90;;;;;;5022937;28;20497;-29
2021/08/01 05:39:04;;;;;;;3.20;2.90;;;23.30;99.90;;;;;;5007318;28;20443;-29
2021/08/01 05:41:37;;;;;;;3.73;3.43;;;23.20;99.90;;;;;;5019869;28;20457;-29
2021/08/01 05:44:08;;;;;;;3.50;3.23;;;23.10;99.90;;;;;;5024421;28;20532;-29
2021/08/01 05:46:40;;;;;;;3.57;3.23;;;23.10;99.90;;;;;;5011308;28;20436;-29
2021/08/01 05:49:11;;;;;;;3.80;3.20;;;23.00;99.90;;;;;;5023476;28;20417;-29
2021/08/01 05:51:42;;;;;;;3.67;3.37;;;22.90;99.90;;;;;;5018050;28;20466;-29
2021/08/01 05:54:13;;;;;;;3.27;3.07;;;22.90;99.90;;;;;;5025689;28;20502;-29
2021/08/01 05:56:46;;;;;;;3.50;3.27;;;22.80;99.90;;;;;;5024373;28;20485;-29
2021/08/01 05:59:17;;;;;;;3.73;3.10;;;22.80;99.90;;;;;;5019975;28;20524;-29
2021/08/01 06:01:48;;;;;;;3.20;3.00;;;22.80;99.90;;;;;;5021637;28;20830;-29
2021/08/01 06:04:19;;;;;;;3.60;3.40;;;22.70;99.90;;;;;;5021080;28;20511;-29
2021/08/01 06:06:50;;;;;;;3.57;3.23;;;22.70;99.90;;;;;;5022154;28;20587;-29
2021/08/01 06:09:21;;;;;;;3.30;3.10;;;22.60;99.90;;;;;;5012389;28;20450;-28
2021/08/01 06:11:53;;;;;;;2.90;2.70;;;22.60;99.90;;;;;;5019226;28;20451;-29
2021/08/01 06:14:24;;;;;;;3.30;3.10;;;22.60;99.90;;;;;;5020178;28;20489;-29
2021/08/01 06:16:55;;;;;;;3.03;2.83;;;22.50;99.90;;;;;;5019302;28;20573;-29
2021/08/01 06:19:26;;;;;;;3.70;3.50;;;22.40;99.90;;;;;;5023126;28;20623;-28
2021/08/01 06:21:57;;;;;;;4.60;4.20;;;22.30;99.90;;;;;;5020499;28;20432;-29
2021/08/01 06:24:28;;;;;;;3.40;3.10;;;22.30;99.90;;;;;;5015120;28;20461;-29
2021/08/01 06:27:02;;;;;;;4.20;3.80;;;22.10;99.90;;;;;;5006532;28;20455;-29
2021/08/01 06:29:32;;;;;;;3.70;3.47;;;22.10;99.90;;;;;;5023032;28;20848;-29
2021/08/01 06:32:04;;;;;;;5.80;3.50;;;22.00;99.90;;;;;;5017069;28;20498;-29
2021/08/01 06:34:35;;;;;;;3.50;3.30;;;22.00;99.90;;;;;;5021280;28;20450;-29
2021/08/01 06:37:06;;;;;;;3.40;3.10;;;22.00;99.90;;;;;;5021061;28;20477;-29
2021/08/01 06:39:37;;;;;;;3.60;3.30;;;21.90;99.90;;;;;;5020459;28;20508;-29
2021/08/01 06:42:09;;;;;;;3.30;3.00;;;21.90;99.90;;;;;;5020385;28;20974;-29
2021/08/01 06:44:41;;;;;;;3.33;3.03;;;21.90;99.90;;;;;;5021046;28;20498;-29
2021/08/01 06:47:12;;;;;;;3.47;3.17;;;21.80;99.90;;;;;;5016586;28;20453;-30
2021/08/01 06:49:43;;;;;;;3.47;3.17;;;21.80;99.90;;;;;;5022272;28;20437;-29
2021/08/01 06:52:30;;;;;;;3.60;3.30;;;21.70;99.90;;;;;;5014148;28;20458;-29
2021/08/01 06:55:02;;;;;;;3.30;2.70;;;21.60;99.90;;;;;;5013244;28;20836;-29
2021/08/01 06:57:35;;;;;;;3.73;3.43;;;21.60;99.90;;;;;;5010992;28;20484;-29
2021/08/01 07:00:07;;;;;;;3.43;3.23;;;21.60;99.90;;;;;;5020977;28;20451;-29
2021/08/01 07:02:38;;;;;;;3.23;3.03;;;21.60;99.90;;;;;;5021068;28;20428;-29
2021/08/01 07:05:10;;;;;;;3.97;3.63;;;21.50;99.90;;;;;;5024642;28;20421;-29
2021/08/01 07:07:41;;;;;;;3.80;3.40;;;21.50;99.90;;;;;;5008080;28;20460;-29
2021/08/01 07:10:13;;;;;;;3.70;3.27;;;21.40;99.90;;;;;;5004816;28;20455;-29
2021/08/01 07:12:45;;;;;;;4.27;3.27;;;21.40;99.90;;;;;;5011129;28;20818;-29
2021/08/01 07:15:17;;;;;;;3.70;3.40;;;21.30;99.90;;;;;;5024034;28;20959;-29
2021/08/01 07:17:48;;;;;;;3.40;3.10;;;21.30;99.90;;;;;;5015798;28;20449;-29
2021/08/01 07:20:19;;;;;;;3.60;3.30;;;21.30;99.90;;;;;;5022871;28;20457;-29
2021/08/01 07:22:50;;;;;;;3.70;3.40;;;21.20;99.90;;;;;;5021952;28;20428;-29
2021/08/01 07:25:23;;;;;;;3.73;3.43;;;21.20;99.90;;;;;;5023658;28;20450;-29
2021/08/01 07:27:56;;;;;;;6.23;3.80;;;21.20;99.90;;;;;;5022793;28;20429;-29
2021/08/01 07:30:27;;;;;;;4.03;3.60;;;21.10;99.90;;;;;;5017299;28;20462;-29
2021/08/01 07:32:58;;;;;;;3.80;3.50;;;21.20;99.90;;;;;;5012867;28;20470;-29
2021/08/01 07:35:29;;;;;;;3.27;2.97;;;21.10;99.90;;;;;;5023116;28;20417;-28
2021/08/01 07:37:59;;;;;;;5.20;3.27;;;21.10;99.90;;;;;;5021261;28;20524;-28
2021/08/01 07:40:30;;;;;;;3.63;3.33;;;21.10;99.90;;;;;;5008791;28;20440;-28
2021/08/01 07:43:04;;;;;;;4.00;3.47;;;21.00;99.90;;;;;;5022441;28;20886;-28
2021/08/01 07:45:36;;;;;;;3.40;3.10;;;21.00;99.90;;;;;;5012824;28;20449;-29
2021/08/01 07:48:07;;;;;;;3.90;3.60;;;20.90;99.90;;;;;;5020082;28;20409;-28
2021/08/01 07:50:38;;;;;;;3.53;3.33;;;20.90;99.90;;;;;;5012202;28;20418;-28
2021/08/01 07:53:09;;;;;;;3.93;3.63;;;20.90;99.90;;;;;;5012387;28;20984;-28
2021/08/01 07:55:42;;;;;;;3.07;2.87;;;20.90;99.90;;;;;;5021021;28;20590;-28
2021/08/01 07:58:14;;;;;;;3.50;3.20;;;20.90;99.90;;;;;;5015704;28;20506;-28
2021/08/01 08:00:45;;;;;;;3.80;3.50;;;20.90;99.90;;;;;;5007350;28;20458;-28
2021/08/01 08:03:16;;;;;;;4.43;4.03;;;21.00;99.90;;;;;;5021128;28;20455;-29
2021/08/01 08:05:47;;;;;;;4.63;3.47;;;20.90;99.90;;;;;;5022819;28;20446;-28
2021/08/01 08:08:18;;;;;;;3.87;3.57;;;20.90;99.90;;;;;;5018090;28;20459;-28
2021/08/01 08:10:50;;;;;;;3.60;3.30;;;20.80;99.90;;;;;;5014569;28;20461;-28
2021/08/01 08:13:23;;;;;;;3.67;3.37;;;20.70;99.90;;;;;;5018323;28;20468;-29
2021/08/01 08:15:55;;;;;;;3.87;3.57;;;20.80;99.90;;;;;;5023222;28;20425;-28
2021/08/01 08:18:26;;;;;;;4.40;3.90;;;20.70;99.90;;;;;;5011046;28;20450;-28
2021/08/01 08:20:57;;;;;;;4.07;3.67;;;20.60;99.90;;;;;;5022316;28;20421;-28
2021/08/01 08:23:29;;;;;;;4.03;3.73;;;20.60;99.90;;;;;;5021693;28;20454;-28
2021/08/01 08:26:00;;;;;;;4.03;3.63;;;20.60;99.90;;;;;;5022771;28;20945;-28
2021/08/01 08:28:32;;;;;;;3.77;3.40;;;20.70;99.90;;;;;;5020305;28;20455;-28
2021/08/01 08:31:03;;;;;;;3.93;3.63;;;20.60;99.90;;;;;;5019261;28;20454;-28
2021/08/01 08:33:34;;;;;;;4.43;3.73;;;20.60;99.90;;;;;;5021441;28;20508;-27
2021/08/01 08:36:05;;;;;;;3.80;3.40;;;20.60;99.90;;;;;;5021447;28;20525;-28
2021/08/01 08:38:36;;;;;;;3.70;3.40;;;20.60;99.90;;;;;;5021486;28;20577;-28
2021/08/01 08:41:08;;;;;;;4.10;3.80;;;20.60;99.90;;;;;;5020865;28;20429;-28
2021/08/01 08:44:00;;;;;;;3.83;3.53;;;20.50;99.90;;;;;;5021617;28;20448;-29
2021/08/01 08:46:35;;;;;;;3.80;3.50;;;20.50;99.90;;;;;;5007414;28;20553;-28
2021/08/01 08:49:11;;;;;;;3.53;3.23;;;20.50;99.90;;;;;;5019019;28;20447;-28
2021/08/01 08:51:44;;;;;;;3.37;3.07;;;20.40;99.90;;;;;;5020651;28;20516;-28
2021/08/01 08:54:18;;;;;;;4.60;4.20;;;20.40;99.90;;;;;;5019739;28;20486;-28
2021/08/01 08:56:50;;;;;;;4.20;3.90;;;20.40;99.90;;;;;;5020509;28;20451;-28
2021/08/01 08:59:24;;;;;;;3.80;3.50;;;20.30;99.90;;;;;;5021005;28;20477;-28
2021/08/01 09:01:55;;;;;;;5.20;4.10;;;20.30;99.90;;;;;;5007837;28;20434;-28
2021/08/01 09:04:26;;;;;;;4.43;4.03;;;20.20;99.90;;;;;;5021768;28;20432;-28
2021/08/01 09:06:59;;;;;;;4.27;3.87;;;20.30;99.90;;;;;;5015767;28;20453;-28
2021/08/01 09:09:30;;;;;;;4.37;3.30;;;20.30;99.90;;;;;;5021953;28;20490;-28
2021/08/01 09:12:01;;;;;;;3.77;3.47;;;20.30;99.90;;;;;;5021558;28;20454;-28
2021/08/01 09:14:33;;;;;;;4.07;3.77;;;20.30;99.90;;;;;;5017323;28;20462;-29
2021/08/01 09:17:05;;;;;;;3.70;3.40;;;20.20;99.90;;;;;;5017971;28;20475;-28
2021/08/01 09:19:37;;;;;;;3.73;3.37;;;20.20;99.90;;;;;;5020677;28;20499;-29
2021/08/01 09:22:19;;;;;;;4.27;3.93;;;20.20;99.90;;;;;;5012101;28;20612;-28
2021/08/01 09:24:54;;;;;;;4.40;3.90;;;20.20;99.90;;;;;;5022213;28;20450;-28
2021/08/01 09:27:30;;;;;;;3.90;3.60;;;20.20;99.90;;;;;;5022105;28;20505;-29
2021/08/01 09:30:04;;;;;;;3.77;3.47;;;20.20;99.90;;;;;;5003107;28;20425;-29
2021/08/01 09:32:48;;;;;;;3.73;3.43;;;20.20;99.90;;;;;;5013655;28;20450;-29
2021/08/01 09:35:20;;;;;;;3.83;3.53;;;20.20;99.90;;;;;;5023036;28;20444;-28
2021/08/01 09:37:58;;;;;;;4.20;3.63;;;20.20;99.90;;;;;;5025094;28;20455;-29
2021/08/01 09:40:30;;;;;;;3.70;3.40;;;20.10;99.90;;;;;;5024600;28;20457;-28
2021/08/01 09:43:09;;;;;;;4.53;4.13;;;20.20;99.90;;;;;;5024428;28;20458;-28
2021/08/01 09:45:42;;;;;;;4.80;4.40;;;20.20;99.90;;;;;;5025066;28;20600;-28
2021/08/01 09:48:18;;;;;;;4.40;4.10;;;20.20;99.90;;;;;;5024562;28;20465;-28
2021/08/01 09:51:06;;;;;;;3.87;3.57;;;20.20;99.90;;;;;;5024995;28;20428;-29
2021/08/01 09:53:39;;;;;;;3.60;3.30;;;20.20;99.90;;;;;;5007401;28;20489;-29
2021/08/01 09:56:18;;;;;;;6.60;3.50;;;20.20;99.90;;;;;;5016181;28;20442;-28
2021/08/01 09:58:50;;;;;;;3.73;3.43;;;20.10;99.90;;;;;;5021768;28;20488;-29
2021/08/01 10:01:23;;;;;;;4.37;4.07;;;20.10;99.90;;;;;;5021624;28;20549;-28
2021/08/01 10:03:54;;;;;;;4.53;4.17;;;20.20;99.90;;;;;;5022875;28;20462;-29
2021/08/01 10:06:25;;;;;;;4.27;3.87;;;20.20;99.90;;;;;;5025263;28;20429;-27
2021/08/01 10:08:56;;;;;;;3.53;3.23;;;20.20;99.90;;;;;;5025197;28;20428;-27
2021/08/01 10:11:28;;;;;;;3.90;3.50;;;20.20;99.90;;;;;;5025205;28;20514;-27
2021/08/01 10:13:59;;;;;;;4.00;3.70;;;20.20;99.90;;;;;;5022332;28;20507;-27
2021/08/01 10:16:31;;;;;;;4.10;3.90;;;20.20;99.90;;;;;;5023473;28;20420;-28
2021/08/01 10:19:02;;;;;;;4.00;3.70;;;20.20;99.90;;;;;;5021661;28;20941;-28
2021/08/01 10:21:33;;;;;;;3.73;3.43;;;20.20;99.90;;;;;;5014484;28;20457;-28
2021/08/01 10:24:07;;;;;;;3.60;3.30;;;20.20;99.90;;;;;;5019138;28;20446;-28
2021/08/01 10:26:42;;;;;;;4.10;3.80;;;20.20;99.90;;;;;;5021330;28;20457;-28
2021/08/01 10:29:15;;;;;;;3.70;3.40;;;20.10;99.90;;;;;;5019744;28;20428;-28
2021/08/01 10:31:54;;;;;;;4.30;3.90;;;20.10;99.90;;;;;;5004633;28;20465;-27
2021/08/01 10:34:38;;;;;;;4.57;3.83;;;20.10;99.90;;;;;;5021090;28;20466;-27
2021/08/01 10:37:13;;;;;;;4.00;3.70;;;20.10;99.90;;;;;;5021977;28;20457;-27
2021/08/01 10:39:47;;;;;;;4.60;3.50;;;20.10;99.90;;;;;;5022039;28;20549;-28
2021/08/01 10:42:21;;;;;;;4.17;3.87;;;20.10;99.90;;;;;;5019852;28;20512;-28
2021/08/01 10:44:52;;;;;;;3.90;3.63;;;20.10;99.90;;;;;;5019637;28;20476;-28
2021/08/01 10:47:26;;;;;;;4.50;4.10;;;20.00;99.90;;;;;;5019264;28;20925;-28
2021/08/01 10:49:58;;;;;;;4.63;3.47;;;20.00;99.90;;;;;;5023521;28;20453;-28
2021/08/01 10:52:33;;;;;;;4.10;3.80;;;20.00;99.90;;;;;;5016848;28;20533;-28
2021/08/01 10:55:06;;;;;;;3.67;3.47;;;20.00;99.90;;;;;;5004657;28;20445;-28
2021/08/01 10:57:37;;;;;;;3.77;3.47;;;20.00;99.90;;;;;;5017894;28;20496;-28
2021/08/01 11:00:12;;;;;;;4.00;3.53;;;19.90;99.90;;;;;;5020252;28;20457;-28
2021/08/01 11:02:44;;;;;;;3.80;3.60;;;19.90;99.90;;;;;;5014846;28;20449;-27
2021/08/01 11:05:41;;;;;;;3.80;3.50;;;19.90;99.90;;;;;;5026943;28;20759;-28
2021/08/01 11:08:12;;;;;;;3.60;3.30;;;19.90;99.90;;;;;;5009151;28;20428;-28
2021/08/01 11:10:44;;;;;;;4.03;3.73;;;19.90;99.90;;;;;;5023761;28;20481;-27
2021/08/01 11:13:38;;;;;;;5.23;4.30;;;19.80;99.90;;;;;;5022417;28;20519;-28
2021/08/01 11:16:14;;;;;;;4.43;3.60;;;19.80;99.90;;;;;;5002269;28;20511;-27
2021/08/01 11:18:47;;;;;;;3.40;3.10;;;19.70;99.90;;;;;;5011101;28;20508;-27
2021/08/01 11:21:39;;;;;;;5.07;3.63;;;19.60;99.90;;;;;;5019942;28;20476;-27
2021/08/01 11:24:12;;;;;;;4.07;3.40;;;19.70;99.90;;;;;;5004701;28;20447;-27
2021/08/01 11:27:14;;;;;;;3.80;3.50;;;19.60;99.90;;;;;;5008702;28;20509;-28
2021/08/01 11:30:02;;;;;;;4.03;3.63;;;19.60;99.90;;;;;;5023256;28;20447;-28
2021/08/01 11:32:55;;;;;;;4.50;4.10;;;19.50;99.90;;;;;;5014432;28;20539;-28
2021/08/01 11:35:29;;;;;;;4.30;3.90;;;19.50;99.90;;;;;;5016137;28;20524;-28
2021/08/01 11:38:10;;;;;;;3.90;3.60;;;19.40;99.90;;;;;;5006122;28;20513;-27
2021/08/01 11:40:49;;;;;;;4.00;3.70;;;19.40;99.90;;;;;;5017136;28;20483;-27
2021/08/01 11:43:21;;;;;;;3.70;3.40;;;19.40;99.90;;;;;;5018733;28;20528;-27
2021/08/01 11:46:05;;;;;;;3.97;3.67;;;19.40;99.90;;;;;;5018036;28;20483;-27
2021/08/01 11:48:37;;;;;;;3.80;3.50;;;19.30;99.90;;;;;;5017561;28;20461;-28
2021/08/01 11:51:09;;;;;;;4.47;4.07;;;19.30;99.90;;;;;;5019828;28;20436;-27
2021/08/01 11:53:42;;;;;;;4.40;4.00;;;19.20;99.90;;;;;;5018899;28;20493;-27
2021/08/01 11:56:13;;;;;;;4.00;3.70;;;19.30;99.90;;;;;;5021236;28;20849;-27
2021/08/01 11:58:46;;;;;;;4.13;3.73;;;19.20;99.90;;;;;;5019127;28;20997;-27
2021/08/01 12:01:19;;;;;;;3.80;3.40;;;19.10;99.90;;;;;;5019900;28;20537;-28
2021/08/01 12:03:51;;;;;;;3.77;3.47;;;19.10;99.90;;;;;;5020205;28;21166;-28
2021/08/01 12:06:35;;;;;;;4.33;3.93;;;19.00;99.90;;;;;;5008694;28;20439;-28
2021/08/01 12:09:18;;;;;;;3.93;3.63;;;19.00;99.90;;;;;;5006969;28;20450;-28
2021/08/01 12:11:50;;;;;;;4.30;3.90;;;18.90;99.90;;;;;;5004016;28;20467;-28
2021/08/01 12:14:25;;;;;;;4.13;3.83;;;18.90;99.90;;;;;;5019711;28;22004;-27
2021/08/01 12:16:58;;;;;;;3.97;3.67;;;18.70;99.90;;;;;;5020983;28;21061;-27
2021/08/01 12:19:31;;;;;;;3.67;3.37;;;18.70;99.90;;;;;;5016736;28;20454;-28
2021/08/01 12:22:09;;;;;;;3.43;3.13;;;18.70;99.90;;;;;;5020998;28;20447;-28
2021/08/01 12:24:41;;;;;;;4.23;3.53;;;18.60;99.90;;;;;;5008689;28;20456;-27
2021/08/01 12:27:14;;;;;;;3.70;3.40;;;18.60;99.90;;;;;;5017162;28;20478;-27
2021/08/01 12:29:47;;;;;;;3.10;2.90;;;18.60;99.90;;;;;;5010082;28;20459;-27
2021/08/01 12:32:23;;;;;;;3.70;3.40;;;18.50;99.90;;;;;;5019699;28;20483;-27
2021/08/01 12:35:03;;;;;;;3.70;3.40;;;18.40;99.90;;;;;;5017420;28;20585;-28
2021/08/01 12:37:45;;;;;;;5.20;3.50;;;18.50;99.90;;;;;;5011048;28;21021;-28
2021/08/01 12:40:27;;;;;;;3.53;3.27;;;18.40;99.90;;;;;;5003728;28;20482;-27
2021/08/01 12:42:59;;;;;;;3.10;2.80;;;18.30;99.90;;;;;;5009382;28;20417;-27
2021/08/01 12:45:35;;;;;;;3.63;3.33;;;18.30;99.90;;;;;;5003416;28;20900;-27
2021/08/01 12:48:08;;;;;;;3.57;3.27;;;18.30;99.90;;;;;;5004737;28;20464;-28
2021/08/01 12:50:43;;;;;;;3.47;3.17;;;18.20;99.90;;;;;;5016521;28;20539;-28
2021/08/01 12:53:17;;;;;;;3.53;3.23;;;18.10;99.90;;;;;;5018835;28;20449;-26
2021/08/01 12:55:52;;;;;;;4.03;3.30;;;18.10;99.90;;;;;;5020285;28;20544;-27
2021/08/01 12:58:31;;;;;;;3.20;3.00;;;18.10;99.90;;;;;;5016487;28;20476;-27
2021/08/01 13:01:04;;;;;;;3.37;3.07;;;18.00;99.90;;;;;;5021520;28;20482;-27
2021/08/01 13:03:37;;;;;;;3.10;2.80;;;18.00;99.90;;;;;;5021371;28;20425;-26
2021/08/01 13:06:08;;;;;;;3.47;3.17;;;17.90;99.90;;;;;;5022547;28;20458;-27
2021/08/01 13:08:43;;;;;;;3.60;3.30;;;17.80;99.90;;;;;;5023686;28;20958;-27
2021/08/01 13:11:15;;;;;;;3.50;3.20;;;17.80;99.90;;;;;;5028636;28;20470;-27
2021/08/01 13:13:53;;;;;;;3.33;3.03;;;17.80;99.90;;;;;;5023470;28;20457;-28
2021/08/01 13:16:26;;;;;;;3.80;3.50;;;17.90;99.90;;;;;;5022257;28;20531;-27
2021/08/01 13:19:18;;;;;;;3.50;3.20;;;17.90;99.90;;;;;;5024727;28;20526;-27
2021/08/01 13:22:07;;;;;;;5.00;3.30;;;17.80;99.90;;;;;;5024070;28;20516;-28